CYEG/YEG METAR and TAF weather

Enter ICAO airport designator
Station Type Date Time Source
CYEG METAR 2019/06/16 07:00 UTC NOAA

CYEG 160700Z 23004KT 20SM FEW130 FEW240 07/06 A3001 RMK AC1CI1 AC TR SLP171


Station Type Date Time Source
CYEG Decoded METAR 2019/06/16 07:00 UTC NOAA

Edmonton International, Alta., Canada (CYEG) 53-18N 113-35W 723M
Jun 16, 2019 - 03:00 AM EDT / 2019.06.16 0700 UTC
Wind: from the SW (230 degrees) at 5 MPH (4 KT):0
Visibility: 20 mile(s):0
Sky conditions: mostly clear
Temperature: 44 F (7 C)
Dew Point: 42 F (6 C)
Relative Humidity: 93%
Pressure (altimeter): 30.01 in. Hg (1016 hPa)
ob: CYEG 160700Z 23004KT 20SM FEW130 FEW240 07/06 A3001 RMK AC1CI1 AC TR SLP171
cycle: 7

Station Type Date Time Source
CYEG TAF 2019/06/16 06:39 UTC NOAA

TAF TAF CYEG 160538Z 1606/1706 VRB03KT P6SM FEW060
FM161800 10008KT P6SM FEW080
FM162100 08008KT P6SM SCT050 BKN200
RMK NXT FCST BY 160900Z

Example: see airport list